sensor_id;sensor_type;location;lat;lon;timestamp;P1;durP1;ratioP1;P2;durP2;ratioP2
21786;SDS011;11055;50.870;4.316;2023-09-07T00:00:14;8.05;;;5.85;;
21786;SDS011;11055;50.870;4.316;2023-09-07T00:02:40;8.88;;;5.78;;
21786;SDS011;11055;50.870;4.316;2023-09-07T00:05:06;10.45;;;6.18;;
21786;SDS011;11055;50.870;4.316;2023-09-07T00:07:32;10.57;;;6.88;;
21786;SDS011;11055;50.870;4.316;2023-09-07T00:09:58;13.13;;;6.10;;
21786;SDS011;11055;50.870;4.316;2023-09-07T00:12:24;9.32;;;6.63;;
21786;SDS011;11055;50.870;4.316;2023-09-07T00:14:51;8.75;;;6.13;;
21786;SDS011;11055;50.870;4.316;2023-09-07T00:17:19;8.60;;;6.43;;
21786;SDS011;11055;50.870;4.316;2023-09-07T00:19:44;7.43;;;5.88;;
21786;SDS011;11055;50.870;4.316;2023-09-07T00:22:13;7.57;;;6.22;;
21786;SDS011;11055;50.870;4.316;2023-09-07T00:24:39;7.72;;;6.47;;
21786;SDS011;11055;50.870;4.316;2023-09-07T00:27:04;9.02;;;6.88;;
21786;SDS011;11055;50.870;4.316;2023-09-07T00:29:32;8.18;;;6.20;;
21786;SDS011;11055;50.870;4.316;2023-09-07T00:31:59;9.10;;;6.50;;
21786;SDS011;11055;50.870;4.316;2023-09-07T00:34:25;7.63;;;6.00;;
21786;SDS011;11055;50.870;4.316;2023-09-07T00:36:50;7.68;;;6.20;;
21786;SDS011;11055;50.870;4.316;2023-09-07T00:39:16;10.15;;;6.35;;
21786;SDS011;11055;50.870;4.316;2023-09-07T00:41:42;9.02;;;6.95;;
21786;SDS011;11055;50.870;4.316;2023-09-07T00:44:07;9.43;;;6.53;;
21786;SDS011;11055;50.870;4.316;2023-09-07T00:46:33;10.32;;;6.30;;
21786;SDS011;11055;50.870;4.316;2023-09-07T00:48:59;9.30;;;6.35;;
21786;SDS011;11055;50.870;4.316;2023-09-07T00:51:25;9.77;;;6.82;;
21786;SDS011;11055;50.870;4.316;2023-09-07T00:53:51;9.13;;;6.50;;
21786;SDS011;11055;50.870;4.316;2023-09-07T00:56:18;8.52;;;6.80;;
21786;SDS011;11055;50.870;4.316;2023-09-07T00:58:44;8.13;;;6.60;;
21786;SDS011;11055;50.870;4.316;2023-09-07T01:01:10;10.05;;;6.25;;
21786;SDS011;11055;50.870;4.316;2023-09-07T01:03:35;10.90;;;7.20;;
21786;SDS011;11055;50.870;4.316;2023-09-07T01:06:02;7.03;;;6.22;;
21786;SDS011;11055;50.870;4.316;2023-09-07T01:08:36;11.23;;;6.80;;
21786;SDS011;11055;50.870;4.316;2023-09-07T01:11:16;7.85;;;6.53;;
21786;SDS011;11055;50.870;4.316;2023-09-07T01:13:46;8.43;;;7.03;;
21786;SDS011;11055;50.870;4.316;2023-09-07T01:16:12;7.30;;;6.47;;
21786;SDS011;11055;50.870;4.316;2023-09-07T01:18:41;8.75;;;6.63;;
21786;SDS011;11055;50.870;4.316;2023-09-07T01:21:07;8.65;;;6.55;;
21786;SDS011;11055;50.870;4.316;2023-09-07T01:23:37;7.57;;;6.68;;
21786;SDS011;11055;50.870;4.316;2023-09-07T01:26:06;12.25;;;6.60;;
21786;SDS011;11055;50.870;4.316;2023-09-07T01:28:33;8.60;;;6.65;;
21786;SDS011;11055;50.870;4.316;2023-09-07T01:31:03;7.90;;;6.40;;
21786;SDS011;11055;50.870;4.316;2023-09-07T01:33:29;8.55;;;6.25;;
21786;SDS011;11055;50.870;4.316;2023-09-07T01:35:55;9.80;;;6.82;;
21786;SDS011;11055;50.870;4.316;2023-09-07T01:38:21;7.38;;;6.40;;
21786;SDS011;11055;50.870;4.316;2023-09-07T01:40:46;7.47;;;6.43;;
21786;SDS011;11055;50.870;4.316;2023-09-07T01:43:12;8.88;;;6.55;;
21786;SDS011;11055;50.870;4.316;2023-09-07T01:45:38;7.88;;;6.50;;
21786;SDS011;11055;50.870;4.316;2023-09-07T01:48:07;9.23;;;6.25;;
21786;SDS011;11055;50.870;4.316;2023-09-07T01:50:35;8.95;;;7.05;;
21786;SDS011;11055;50.870;4.316;2023-09-07T01:53:01;9.75;;;6.88;;
21786;SDS011;11055;50.870;4.316;2023-09-07T01:55:28;9.07;;;6.63;;
21786;SDS011;11055;50.870;4.316;2023-09-07T01:57:54;7.05;;;6.35;;
21786;SDS011;11055;50.870;4.316;2023-09-07T02:00:19;7.70;;;6.72;;
21786;SDS011;11055;50.870;4.316;2023-09-07T02:02:45;11.52;;;6.75;;
21786;SDS011;11055;50.870;4.316;2023-09-07T02:05:11;7.85;;;6.65;;
21786;SDS011;11055;50.870;4.316;2023-09-07T02:07:37;9.60;;;6.53;;
21786;SDS011;11055;50.870;4.316;2023-09-07T02:10:03;11.18;;;7.03;;
21786;SDS011;11055;50.870;4.316;2023-09-07T02:12:29;11.07;;;6.80;;
21786;SDS011;11055;50.870;4.316;2023-09-07T02:14:55;7.43;;;6.72;;
21786;SDS011;11055;50.870;4.316;2023-09-07T02:17:21;7.85;;;6.63;;
21786;SDS011;11055;50.870;4.316;2023-09-07T02:19:49;7.75;;;6.38;;
21786;SDS011;11055;50.870;4.316;2023-09-07T02:22:15;9.38;;;6.25;;
21786;SDS011;11055;50.870;4.316;2023-09-07T02:24:41;8.43;;;6.65;;
21786;SDS011;11055;50.870;4.316;2023-09-07T02:27:06;6.55;;;5.90;;
21786;SDS011;11055;50.870;4.316;2023-09-07T02:29:32;9.07;;;6.50;;
21786;SDS011;11055;50.870;4.316;2023-09-07T02:31:58;8.02;;;6.25;;
21786;SDS011;11055;50.870;4.316;2023-09-07T02:34:23;8.43;;;6.28;;
21786;SDS011;11055;50.870;4.316;2023-09-07T02:36:52;7.55;;;6.43;;
21786;SDS011;11055;50.870;4.316;2023-09-07T02:39:18;9.50;;;6.47;;
21786;SDS011;11055;50.870;4.316;2023-09-07T02:41:45;7.88;;;6.32;;
21786;SDS011;11055;50.870;4.316;2023-09-07T02:44:14;8.48;;;6.55;;
21786;SDS011;11055;50.870;4.316;2023-09-07T02:46:39;9.80;;;6.50;;
21786;SDS011;11055;50.870;4.316;2023-09-07T02:49:05;7.82;;;6.47;;
21786;SDS011;11055;50.870;4.316;2023-09-07T02:51:31;7.63;;;6.82;;
21786;SDS011;11055;50.870;4.316;2023-09-07T02:53:56;8.68;;;6.60;;
21786;SDS011;11055;50.870;4.316;2023-09-07T02:56:22;9.50;;;7.20;;
21786;SDS011;11055;50.870;4.316;2023-09-07T02:58:48;9.05;;;6.38;;
21786;SDS011;11055;50.870;4.316;2023-09-07T03:01:13;7.72;;;6.85;;
21786;SDS011;11055;50.870;4.316;2023-09-07T03:03:39;7.68;;;6.78;;
21786;SDS011;11055;50.870;4.316;2023-09-07T03:06:09;10.00;;;6.20;;
21786;SDS011;11055;50.870;4.316;2023-09-07T03:08:36;8.63;;;6.82;;
21786;SDS011;11055;50.870;4.316;2023-09-07T03:11:03;8.82;;;7.22;;
21786;SDS011;11055;50.870;4.316;2023-09-07T03:13:29;10.35;;;6.85;;
21786;SDS011;11055;50.870;4.316;2023-09-07T03:15:55;8.15;;;6.75;;
21786;SDS011;11055;50.870;4.316;2023-09-07T03:18:21;7.22;;;6.53;;
21786;SDS011;11055;50.870;4.316;2023-09-07T03:20:47;9.02;;;6.38;;
21786;SDS011;11055;50.870;4.316;2023-09-07T03:23:13;8.13;;;6.82;;
21786;SDS011;11055;50.870;4.316;2023-09-07T03:25:38;7.88;;;5.97;;
21786;SDS011;11055;50.870;4.316;2023-09-07T03:28:04;7.53;;;6.40;;
21786;SDS011;11055;50.870;4.316;2023-09-07T03:30:39;8.02;;;7.05;;
21786;SDS011;11055;50.870;4.316;2023-09-07T03:33:05;9.82;;;6.68;;
21786;SDS011;11055;50.870;4.316;2023-09-07T03:35:31;12.90;;;6.85;;
21786;SDS011;11055;50.870;4.316;2023-09-07T03:37:57;11.40;;;6.63;;
21786;SDS011;11055;50.870;4.316;2023-09-07T03:40:23;8.65;;;6.15;;
21786;SDS011;11055;50.870;4.316;2023-09-07T03:42:49;9.38;;;6.30;;
21786;SDS011;11055;50.870;4.316;2023-09-07T03:45:15;7.70;;;6.80;;
21786;SDS011;11055;50.870;4.316;2023-09-07T03:47:41;9.50;;;6.78;;
21786;SDS011;11055;50.870;4.316;2023-09-07T03:50:07;9.73;;;6.63;;
21786;SDS011;11055;50.870;4.316;2023-09-07T03:52:33;10.30;;;7.05;;
21786;SDS011;11055;50.870;4.316;2023-09-07T03:54:59;9.65;;;6.65;;
21786;SDS011;11055;50.870;4.316;2023-09-07T03:57:25;7.70;;;6.63;;
21786;SDS011;11055;50.870;4.316;2023-09-07T03:59:52;9.07;;;6.47;;
21786;SDS011;11055;50.870;4.316;2023-09-07T04:02:18;9.85;;;7.20;;
21786;SDS011;11055;50.870;4.316;2023-09-07T04:04:47;9.48;;;7.50;;
21786;SDS011;11055;50.870;4.316;2023-09-07T04:07:14;10.93;;;6.72;;
21786;SDS011;11055;50.870;4.316;2023-09-07T04:09:40;10.63;;;6.50;;
21786;SDS011;11055;50.870;4.316;2023-09-07T04:12:06;6.80;;;6.18;;
21786;SDS011;11055;50.870;4.316;2023-09-07T04:14:32;8.10;;;7.03;;
21786;SDS011;11055;50.870;4.316;2023-09-07T04:16:58;10.05;;;7.30;;
21786;SDS011;11055;50.870;4.316;2023-09-07T04:19:23;10.85;;;7.30;;
21786;SDS011;11055;50.870;4.316;2023-09-07T04:21:49;12.23;;;7.10;;
21786;SDS011;11055;50.870;4.316;2023-09-07T04:24:15;8.75;;;6.57;;
21786;SDS011;11055;50.870;4.316;2023-09-07T04:26:41;8.98;;;6.63;;
21786;SDS011;11055;50.870;4.316;2023-09-07T04:29:07;9.88;;;6.65;;
21786;SDS011;11055;50.870;4.316;2023-09-07T04:31:33;11.52;;;6.78;;
21786;SDS011;11055;50.870;4.316;2023-09-07T04:33:59;9.90;;;7.00;;
21786;SDS011;11055;50.870;4.316;2023-09-07T04:36:25;10.40;;;7.45;;
21786;SDS011;11055;50.870;4.316;2023-09-07T04:38:51;7.82;;;6.47;;
21786;SDS011;11055;50.870;4.316;2023-09-07T04:41:19;9.82;;;6.88;;
21786;SDS011;11055;50.870;4.316;2023-09-07T04:43:45;7.78;;;6.97;;
21786;SDS011;11055;50.870;4.316;2023-09-07T04:46:12;10.88;;;6.95;;
21786;SDS011;11055;50.870;4.316;2023-09-07T04:48:38;13.30;;;6.78;;
21786;SDS011;11055;50.870;4.316;2023-09-07T04:51:06;10.75;;;7.53;;
21786;SDS011;11055;50.870;4.316;2023-09-07T04:53:34;8.35;;;7.10;;
21786;SDS011;11055;50.870;4.316;2023-09-07T04:56:01;8.98;;;7.25;;
21786;SDS011;11055;50.870;4.316;2023-09-07T04:58:28;9.35;;;7.22;;
21786;SDS011;11055;50.870;4.316;2023-09-07T05:00:54;11.77;;;7.18;;
21786;SDS011;11055;50.870;4.316;2023-09-07T05:03:19;11.50;;;7.70;;
21786;SDS011;11055;50.870;4.316;2023-09-07T05:05:50;11.15;;;6.97;;
21786;SDS011;11055;50.870;4.316;2023-09-07T05:08:16;9.05;;;7.32;;
21786;SDS011;11055;50.870;4.316;2023-09-07T05:10:42;9.80;;;7.30;;
21786;SDS011;11055;50.870;4.316;2023-09-07T05:13:07;10.10;;;7.95;;
21786;SDS011;11055;50.870;4.316;2023-09-07T05:15:33;10.63;;;7.32;;
21786;SDS011;11055;50.870;4.316;2023-09-07T05:17:59;7.70;;;6.93;;
21786;SDS011;11055;50.870;4.316;2023-09-07T05:20:24;13.38;;;8.38;;
21786;SDS011;11055;50.870;4.316;2023-09-07T05:22:51;13.93;;;8.32;;
21786;SDS011;11055;50.870;4.316;2023-09-07T05:25:18;12.05;;;7.60;;
21786;SDS011;11055;50.870;4.316;2023-09-07T05:27:45;15.32;;;8.50;;
21786;SDS011;11055;50.870;4.316;2023-09-07T05:30:11;9.98;;;7.18;;
21786;SDS011;11055;50.870;4.316;2023-09-07T05:32:36;11.68;;;7.40;;
21786;SDS011;11055;50.870;4.316;2023-09-07T05:40:17;13.45;;;7.85;;
21786;SDS011;11055;50.870;4.316;2023-09-07T05:42:42;10.40;;;7.97;;
21786;SDS011;11055;50.870;4.316;2023-09-07T05:45:08;13.32;;;8.02;;
21786;SDS011;11055;50.870;4.316;2023-09-07T05:47:34;14.10;;;7.25;;
21786;SDS011;11055;50.870;4.316;2023-09-07T05:49:59;11.55;;;7.82;;
21786;SDS011;11055;50.870;4.316;2023-09-07T05:52:25;9.30;;;7.70;;
21786;SDS011;11055;50.870;4.316;2023-09-07T05:54:57;12.02;;;8.50;;
21786;SDS011;11055;50.870;4.316;2023-09-07T05:57:23;12.20;;;8.50;;
21786;SDS011;11055;50.870;4.316;2023-09-07T05:59:48;11.05;;;7.53;;
21786;SDS011;11055;50.870;4.316;2023-09-07T06:02:14;13.00;;;7.32;;
21786;SDS011;11055;50.870;4.316;2023-09-07T06:04:42;8.55;;;7.53;;
21786;SDS011;11055;50.870;4.316;2023-09-07T06:07:07;13.20;;;7.15;;
21786;SDS011;11055;50.870;4.316;2023-09-07T06:09:33;12.50;;;8.20;;
21786;SDS011;11055;50.870;4.316;2023-09-07T06:12:03;13.70;;;8.23;;
21786;SDS011;11055;50.870;4.316;2023-09-07T06:14:29;10.70;;;7.50;;
21786;SDS011;11055;50.870;4.316;2023-09-07T06:16:55;14.27;;;8.23;;
21786;SDS011;11055;50.870;4.316;2023-09-07T06:19:21;9.90;;;7.25;;
21786;SDS011;11055;50.870;4.316;2023-09-07T06:21:47;12.73;;;7.55;;
21786;SDS011;11055;50.870;4.316;2023-09-07T06:24:12;10.90;;;7.35;;
21786;SDS011;11055;50.870;4.316;2023-09-07T06:26:41;12.95;;;7.25;;
21786;SDS011;11055;50.870;4.316;2023-09-07T06:29:11;11.77;;;7.78;;
21786;SDS011;11055;50.870;4.316;2023-09-07T06:31:43;15.85;;;8.23;;
21786;SDS011;11055;50.870;4.316;2023-09-07T06:34:11;14.27;;;7.95;;
21786;SDS011;11055;50.870;4.316;2023-09-07T06:36:37;10.38;;;7.40;;
21786;SDS011;11055;50.870;4.316;2023-09-07T06:39:03;12.02;;;7.15;;
21786;SDS011;11055;50.870;4.316;2023-09-07T06:41:29;8.25;;;6.90;;
21786;SDS011;11055;50.870;4.316;2023-09-07T06:43:58;9.77;;;7.20;;
21786;SDS011;11055;50.870;4.316;2023-09-07T06:46:27;9.35;;;7.03;;
21786;SDS011;11055;50.870;4.316;2023-09-07T06:48:52;12.68;;;7.53;;
21786;SDS011;11055;50.870;4.316;2023-09-07T06:51:18;9.18;;;7.93;;
21786;SDS011;11055;50.870;4.316;2023-09-07T06:53:43;10.02;;;8.07;;
21786;SDS011;11055;50.870;4.316;2023-09-07T06:56:09;10.05;;;6.88;;
21786;SDS011;11055;50.870;4.316;2023-09-07T06:58:35;10.48;;;7.55;;
21786;SDS011;11055;50.870;4.316;2023-09-07T07:01:01;9.82;;;6.57;;
21786;SDS011;11055;50.870;4.316;2023-09-07T07:03:27;10.32;;;7.22;;
21786;SDS011;11055;50.870;4.316;2023-09-07T07:05:54;15.23;;;6.78;;
21786;SDS011;11055;50.870;4.316;2023-09-07T07:08:21;10.40;;;6.60;;
21786;SDS011;11055;50.870;4.316;2023-09-07T07:10:47;8.85;;;6.60;;
21786;SDS011;11055;50.870;4.316;2023-09-07T07:13:12;10.73;;;6.80;;
21786;SDS011;11055;50.870;4.316;2023-09-07T07:15:38;8.27;;;7.00;;
21786;SDS011;11055;50.870;4.316;2023-09-07T07:18:06;10.40;;;7.07;;
21786;SDS011;11055;50.870;4.316;2023-09-07T07:20:35;8.63;;;6.78;;
21786;SDS011;11055;50.870;4.316;2023-09-07T07:23:07;11.13;;;6.97;;
21786;SDS011;11055;50.870;4.316;2023-09-07T07:25:33;10.50;;;6.38;;
21786;SDS011;11055;50.870;4.316;2023-09-07T07:28:05;9.38;;;6.55;;
21786;SDS011;11055;50.870;4.316;2023-09-07T07:30:38;9.18;;;6.38;;
21786;SDS011;11055;50.870;4.316;2023-09-07T07:33:07;6.90;;;6.20;;
21786;SDS011;11055;50.870;4.316;2023-09-07T07:35:34;6.82;;;6.10;;
21786;SDS011;11055;50.870;4.316;2023-09-07T07:38:01;12.55;;;6.53;;
21786;SDS011;11055;50.870;4.316;2023-09-07T07:40:34;9.02;;;6.45;;
21786;SDS011;11055;50.870;4.316;2023-09-07T07:42:59;13.63;;;6.43;;
21786;SDS011;11055;50.870;4.316;2023-09-07T07:45:26;8.50;;;5.78;;
21786;SDS011;11055;50.870;4.316;2023-09-07T07:47:55;11.20;;;8.15;;
21786;SDS011;11055;50.870;4.316;2023-09-07T07:50:20;12.80;;;6.10;;
21786;SDS011;11055;50.870;4.316;2023-09-07T07:52:46;9.50;;;5.90;;
21786;SDS011;11055;50.870;4.316;2023-09-07T07:55:12;8.00;;;5.90;;
21786;SDS011;11055;50.870;4.316;2023-09-07T07:57:40;7.00;;;6.13;;
21786;SDS011;11055;50.870;4.316;2023-09-07T08:00:06;10.27;;;5.85;;
21786;SDS011;11055;50.870;4.316;2023-09-07T08:02:32;11.02;;;5.63;;
21786;SDS011;11055;50.870;4.316;2023-09-07T08:04:58;12.75;;;5.93;;
21786;SDS011;11055;50.870;4.316;2023-09-07T08:07:24;7.65;;;5.25;;
21786;SDS011;11055;50.870;4.316;2023-09-07T08:09:51;11.70;;;5.80;;
21786;SDS011;11055;50.870;4.316;2023-09-07T08:12:17;5.32;;;4.80;;
21786;SDS011;11055;50.870;4.316;2023-09-07T08:14:42;8.50;;;5.38;;
21786;SDS011;11055;50.870;4.316;2023-09-07T08:17:08;6.00;;;5.40;;
21786;SDS011;11055;50.870;4.316;2023-09-07T08:19:34;8.40;;;5.13;;
21786;SDS011;11055;50.870;4.316;2023-09-07T08:22:00;10.55;;;5.22;;
21786;SDS011;11055;50.870;4.316;2023-09-07T08:24:28;6.00;;;4.32;;
21786;SDS011;11055;50.870;4.316;2023-09-07T08:26:54;7.22;;;4.57;;
21786;SDS011;11055;50.870;4.316;2023-09-07T08:29:22;7.72;;;4.35;;
21786;SDS011;11055;50.870;4.316;2023-09-07T08:31:51;7.38;;;4.28;;
21786;SDS011;11055;50.870;4.316;2023-09-07T08:34:18;9.77;;;4.63;;
21786;SDS011;11055;50.870;4.316;2023-09-07T08:36:47;10.68;;;4.47;;
21786;SDS011;11055;50.870;4.316;2023-09-07T08:39:15;9.77;;;4.55;;
21786;SDS011;11055;50.870;4.316;2023-09-07T08:41:42;8.57;;;4.68;;
21786;SDS011;11055;50.870;4.316;2023-09-07T08:44:15;5.85;;;4.43;;
21786;SDS011;11055;50.870;4.316;2023-09-07T08:46:42;6.93;;;4.20;;
21786;SDS011;11055;50.870;4.316;2023-09-07T08:49:08;5.35;;;4.18;;
21786;SDS011;11055;50.870;4.316;2023-09-07T08:51:37;7.35;;;3.58;;
21786;SDS011;11055;50.870;4.316;2023-09-07T08:54:07;7.38;;;4.50;;
21786;SDS011;11055;50.870;4.316;2023-09-07T08:56:33;9.65;;;4.47;;
21786;SDS011;11055;50.870;4.316;2023-09-07T08:58:59;5.32;;;3.85;;
21786;SDS011;11055;50.870;4.316;2023-09-07T09:01:25;6.88;;;3.95;;
21786;SDS011;11055;50.870;4.316;2023-09-07T09:03:51;6.22;;;3.85;;
21786;SDS011;11055;50.870;4.316;2023-09-07T09:06:18;7.43;;;4.78;;
21786;SDS011;11055;50.870;4.316;2023-09-07T09:08:48;5.90;;;3.80;;
21786;SDS011;11055;50.870;4.316;2023-09-07T09:11:15;6.43;;;3.60;;
21786;SDS011;11055;50.870;4.316;2023-09-07T09:13:42;6.60;;;4.00;;
21786;SDS011;11055;50.870;4.316;2023-09-07T09:16:08;5.40;;;3.60;;
21786;SDS011;11055;50.870;4.316;2023-09-07T09:18:47;6.07;;;3.53;;
21786;SDS011;11055;50.870;4.316;2023-09-07T09:21:23;4.97;;;3.58;;
21786;SDS011;11055;50.870;4.316;2023-09-07T09:23:53;4.70;;;3.60;;
21786;SDS011;11055;50.870;4.316;2023-09-07T09:26:20;6.53;;;3.63;;
21786;SDS011;11055;50.870;4.316;2023-09-07T09:28:48;5.65;;;3.78;;
21786;SDS011;11055;50.870;4.316;2023-09-07T09:31:16;5.03;;;4.18;;
21786;SDS011;11055;50.870;4.316;2023-09-07T09:33:48;6.10;;;3.55;;
21786;SDS011;11055;50.870;4.316;2023-09-07T09:36:16;5.68;;;3.78;;
21786;SDS011;11055;50.870;4.316;2023-09-07T09:38:49;5.03;;;3.60;;
21786;SDS011;11055;50.870;4.316;2023-09-07T09:41:19;8.40;;;3.88;;
21786;SDS011;11055;50.870;4.316;2023-09-07T09:43:46;6.85;;;3.38;;
21786;SDS011;11055;50.870;4.316;2023-09-07T09:46:14;7.03;;;3.50;;
21786;SDS011;11055;50.870;4.316;2023-09-07T09:48:40;4.25;;;3.33;;
21786;SDS011;11055;50.870;4.316;2023-09-07T09:51:08;5.15;;;3.70;;
21786;SDS011;11055;50.870;4.316;2023-09-07T09:53:33;8.43;;;4.03;;
21786;SDS011;11055;50.870;4.316;2023-09-07T09:56:00;4.03;;;3.50;;
21786;SDS011;11055;50.870;4.316;2023-09-07T09:58:26;5.28;;;3.85;;
21786;SDS011;11055;50.870;4.316;2023-09-07T10:00:53;7.55;;;4.10;;
21786;SDS011;11055;50.870;4.316;2023-09-07T10:03:34;5.32;;;3.85;;
21786;SDS011;11055;50.870;4.316;2023-09-07T10:06:11;4.00;;;3.50;;
21786;SDS011;11055;50.870;4.316;2023-09-07T10:08:50;4.15;;;3.78;;
21786;SDS011;11055;50.870;4.316;2023-09-07T10:11:26;4.60;;;3.67;;
21786;SDS011;11055;50.870;4.316;2023-09-07T10:13:57;4.63;;;4.05;;
21786;SDS011;11055;50.870;4.316;2023-09-07T10:16:27;4.65;;;3.70;;
21786;SDS011;11055;50.870;4.316;2023-09-07T10:18:52;7.60;;;4.40;;
21786;SDS011;11055;50.870;4.316;2023-09-07T10:21:18;4.50;;;3.70;;
21786;SDS011;11055;50.870;4.316;2023-09-07T10:23:44;7.45;;;4.13;;
21786;SDS011;11055;50.870;4.316;2023-09-07T10:28:40;7.20;;;4.70;;
21786;SDS011;11055;50.870;4.316;2023-09-07T10:31:17;6.97;;;4.47;;
21786;SDS011;11055;50.870;4.316;2023-09-07T10:33:44;4.68;;;3.97;;
21786;SDS011;11055;50.870;4.316;2023-09-07T10:36:20;5.68;;;4.13;;
21786;SDS011;11055;50.870;4.316;2023-09-07T10:38:53;4.55;;;4.13;;
21786;SDS011;11055;50.870;4.316;2023-09-07T10:41:21;5.65;;;3.88;;
21786;SDS011;11055;50.870;4.316;2023-09-07T10:43:50;7.13;;;4.05;;
21786;SDS011;11055;50.870;4.316;2023-09-07T10:46:19;5.72;;;4.03;;
21786;SDS011;11055;50.870;4.316;2023-09-07T10:48:53;6.53;;;4.32;;
21786;SDS011;11055;50.870;4.316;2023-09-07T10:51:21;5.93;;;3.90;;
21786;SDS011;11055;50.870;4.316;2023-09-07T10:53:48;4.68;;;4.13;;
21786;SDS011;11055;50.870;4.316;2023-09-07T10:56:17;6.55;;;4.35;;
21786;SDS011;11055;50.870;4.316;2023-09-07T10:58:43;4.53;;;4.05;;
21786;SDS011;11055;50.870;4.316;2023-09-07T11:01:09;7.43;;;4.18;;
21786;SDS011;11055;50.870;4.316;2023-09-07T11:03:35;4.95;;;4.18;;
21786;SDS011;11055;50.870;4.316;2023-09-07T11:06:09;6.70;;;4.32;;
21786;SDS011;11055;50.870;4.316;2023-09-07T11:08:38;5.57;;;4.28;;
21786;SDS011;11055;50.870;4.316;2023-09-07T11:11:09;5.47;;;4.00;;
21786;SDS011;11055;50.870;4.316;2023-09-07T11:13:35;6.38;;;4.20;;
21786;SDS011;11055;50.870;4.316;2023-09-07T11:16:01;7.47;;;4.22;;
21786;SDS011;11055;50.870;4.316;2023-09-07T11:18:29;4.85;;;4.15;;
21786;SDS011;11055;50.870;4.316;2023-09-07T11:20:55;4.13;;;3.78;;
21786;SDS011;11055;50.870;4.316;2023-09-07T11:23:22;8.18;;;4.43;;
21786;SDS011;11055;50.870;4.316;2023-09-07T11:25:49;4.47;;;4.05;;
21786;SDS011;11055;50.870;4.316;2023-09-07T11:28:17;5.93;;;3.78;;
21786;SDS011;11055;50.870;4.316;2023-09-07T11:30:54;4.38;;;3.97;;
21786;SDS011;11055;50.870;4.316;2023-09-07T11:33:21;5.22;;;4.07;;
21786;SDS011;11055;50.870;4.316;2023-09-07T11:35:48;4.05;;;3.65;;
21786;SDS011;11055;50.870;4.316;2023-09-07T11:38:14;4.60;;;4.07;;
21786;SDS011;11055;50.870;4.316;2023-09-07T11:40:41;4.15;;;3.47;;
21786;SDS011;11055;50.870;4.316;2023-09-07T11:43:10;6.28;;;3.90;;
21786;SDS011;11055;50.870;4.316;2023-09-07T11:45:40;6.20;;;3.60;;
21786;SDS011;11055;50.870;4.316;2023-09-07T11:48:06;4.13;;;3.63;;
21786;SDS011;11055;50.870;4.316;2023-09-07T11:50:34;4.57;;;3.58;;
21786;SDS011;11055;50.870;4.316;2023-09-07T11:53:00;5.28;;;3.53;;
21786;SDS011;11055;50.870;4.316;2023-09-07T11:55:26;4.53;;;3.63;;
21786;SDS011;11055;50.870;4.316;2023-09-07T11:57:51;3.88;;;3.47;;
21786;SDS011;11055;50.870;4.316;2023-09-07T12:00:17;3.30;;;3.10;;
21786;SDS011;11055;50.870;4.316;2023-09-07T12:02:44;6.25;;;3.50;;
21786;SDS011;11055;50.870;4.316;2023-09-07T12:05:11;4.55;;;4.10;;
21786;SDS011;11055;50.870;4.316;2023-09-07T12:07:39;7.65;;;3.47;;
21786;SDS011;11055;50.870;4.316;2023-09-07T12:10:08;7.57;;;3.22;;
21786;SDS011;11055;50.870;4.316;2023-09-07T12:12:38;5.15;;;3.65;;
21786;SDS011;11055;50.870;4.316;2023-09-07T12:15:05;4.47;;;3.22;;
21786;SDS011;11055;50.870;4.316;2023-09-07T12:17:34;3.92;;;3.25;;
21786;SDS011;11055;50.870;4.316;2023-09-07T12:20:00;6.85;;;3.40;;
21786;SDS011;11055;50.870;4.316;2023-09-07T12:22:29;5.18;;;2.97;;
21786;SDS011;11055;50.870;4.316;2023-09-07T12:24:55;4.90;;;3.17;;
21786;SDS011;11055;50.870;4.316;2023-09-07T12:27:21;7.60;;;3.83;;
21786;SDS011;11055;50.870;4.316;2023-09-07T12:29:46;4.90;;;2.88;;
21786;SDS011;11055;50.870;4.316;2023-09-07T12:32:15;4.88;;;3.03;;
21786;SDS011;11055;50.870;4.316;2023-09-07T12:34:41;4.80;;;3.22;;
21786;SDS011;11055;50.870;4.316;2023-09-07T12:37:07;3.53;;;3.22;;
21786;SDS011;11055;50.870;4.316;2023-09-07T12:39:32;4.63;;;3.60;;
21786;SDS011;11055;50.870;4.316;2023-09-07T12:41:58;4.72;;;3.55;;
21786;SDS011;11055;50.870;4.316;2023-09-07T12:44:24;4.78;;;3.25;;
21786;SDS011;11055;50.870;4.316;2023-09-07T12:46:49;7.63;;;3.83;;
21786;SDS011;11055;50.870;4.316;2023-09-07T12:49:15;3.55;;;3.25;;
21786;SDS011;11055;50.870;4.316;2023-09-07T12:51:41;7.40;;;3.60;;
21786;SDS011;11055;50.870;4.316;2023-09-07T12:54:09;5.65;;;3.50;;
21786;SDS011;11055;50.870;4.316;2023-09-07T12:56:38;5.50;;;3.75;;
21786;SDS011;11055;50.870;4.316;2023-09-07T12:59:04;3.65;;;3.35;;
21786;SDS011;11055;50.870;4.316;2023-09-07T13:01:29;5.07;;;3.60;;
21786;SDS011;11055;50.870;4.316;2023-09-07T13:03:56;8.90;;;3.60;;
21786;SDS011;11055;50.870;4.316;2023-09-07T13:06:21;3.55;;;3.25;;
21786;SDS011;11055;50.870;4.316;2023-09-07T13:08:47;6.00;;;3.58;;
21786;SDS011;11055;50.870;4.316;2023-09-07T13:11:13;5.45;;;3.65;;
21786;SDS011;11055;50.870;4.316;2023-09-07T13:13:39;3.40;;;3.10;;
21786;SDS011;11055;50.870;4.316;2023-09-07T13:16:04;5.18;;;4.15;;
21786;SDS011;11055;50.870;4.316;2023-09-07T13:18:30;5.53;;;3.38;;
21786;SDS011;11055;50.870;4.316;2023-09-07T13:20:57;5.00;;;3.60;;
21786;SDS011;11055;50.870;4.316;2023-09-07T13:23:29;6.00;;;3.33;;
21786;SDS011;11055;50.870;4.316;2023-09-07T13:25:55;5.90;;;3.92;;
21786;SDS011;11055;50.870;4.316;2023-09-07T13:28:21;8.93;;;4.47;;
21786;SDS011;11055;50.870;4.316;2023-09-07T13:30:50;9.73;;;3.80;;
21786;SDS011;11055;50.870;4.316;2023-09-07T13:33:16;6.43;;;3.83;;
21786;SDS011;11055;50.870;4.316;2023-09-07T13:35:41;4.10;;;3.70;;
21786;SDS011;11055;50.870;4.316;2023-09-07T13:38:08;6.53;;;3.70;;
21786;SDS011;11055;50.870;4.316;2023-09-07T13:40:34;6.05;;;3.60;;
21786;SDS011;11055;50.870;4.316;2023-09-07T13:43:00;6.00;;;3.63;;
21786;SDS011;11055;50.870;4.316;2023-09-07T13:45:25;4.05;;;3.40;;
21786;SDS011;11055;50.870;4.316;2023-09-07T13:47:53;4.22;;;3.10;;
21786;SDS011;11055;50.870;4.316;2023-09-07T13:50:19;5.72;;;3.30;;
21786;SDS011;11055;50.870;4.316;2023-09-07T13:52:44;4.15;;;3.50;;
21786;SDS011;11055;50.870;4.316;2023-09-07T13:55:10;5.68;;;3.35;;
21786;SDS011;11055;50.870;4.316;2023-09-07T13:57:36;6.90;;;3.88;;
21786;SDS011;11055;50.870;4.316;2023-09-07T14:00:02;5.75;;;3.45;;
21786;SDS011;11055;50.870;4.316;2023-09-07T14:02:30;7.90;;;3.53;;
21786;SDS011;11055;50.870;4.316;2023-09-07T14:04:57;6.22;;;3.95;;
21786;SDS011;11055;50.870;4.316;2023-09-07T14:07:23;8.77;;;3.55;;
21786;SDS011;11055;50.870;4.316;2023-09-07T14:09:50;8.20;;;4.00;;
21786;SDS011;11055;50.870;4.316;2023-09-07T14:12:23;4.95;;;3.63;;
21786;SDS011;11055;50.870;4.316;2023-09-07T14:14:52;5.53;;;3.55;;
21786;SDS011;11055;50.870;4.316;2023-09-07T14:17:18;8.55;;;4.30;;
21786;SDS011;11055;50.870;4.316;2023-09-07T14:19:43;9.57;;;4.55;;
21786;SDS011;11055;50.870;4.316;2023-09-07T14:22:10;6.22;;;3.70;;
21786;SDS011;11055;50.870;4.316;2023-09-07T14:24:37;3.38;;;3.03;;
21786;SDS011;11055;50.870;4.316;2023-09-07T14:27:02;4.60;;;3.70;;
21786;SDS011;11055;50.870;4.316;2023-09-07T14:29:29;19.10;;;4.82;;
21786;SDS011;11055;50.870;4.316;2023-09-07T14:31:54;5.03;;;3.53;;
21786;SDS011;11055;50.870;4.316;2023-09-07T14:34:20;4.15;;;3.55;;
21786;SDS011;11055;50.870;4.316;2023-09-07T14:36:46;8.77;;;3.90;;
21786;SDS011;11055;50.870;4.316;2023-09-07T14:39:11;7.72;;;4.00;;
21786;SDS011;11055;50.870;4.316;2023-09-07T14:41:37;8.82;;;4.13;;
21786;SDS011;11055;50.870;4.316;2023-09-07T14:44:04;7.30;;;3.67;;
21786;SDS011;11055;50.870;4.316;2023-09-07T14:46:29;4.90;;;4.43;;
21786;SDS011;11055;50.870;4.316;2023-09-07T14:48:55;8.02;;;4.35;;
21786;SDS011;11055;50.870;4.316;2023-09-07T14:51:22;4.47;;;3.78;;